Time;durP1;ratioP1;P1;durP2;ratioP2;P2;SDS_P1;SDS_P2;PMS_P1;PMS_P2;Temp;Humidity;BMP_temperature;BMP_pressure;BME280_temperature;BME280_humidity;BME280_pressure;Samples;Min_cycle;Max_cycle;Signal;HPM_P1;HPM_P2
2023/08/20 00:00:31;;;;;;;;;;;20.30;88.50;;;;;;5000588;28;20319;-85
2023/08/20 00:03:08;;;;;;;;;;;20.40;88.70;;;;;;4997742;28;19933;-85
2023/08/20 00:05:34;;;;;;;;;;;20.50;88.30;;;;;;4990626;28;19910;-85
2023/08/20 00:07:59;;;;;;;;;;;20.50;87.60;;;;;;4996437;28;20403;-85
2023/08/20 00:10:25;;;;;;;;;;;20.50;87.70;;;;;;4997123;28;19973;-85
2023/08/20 00:12:50;;;;;;;;;;;20.40;87.90;;;;;;4996856;28;19972;-85
2023/08/20 00:15:16;;;;;;;;;;;20.50;87.70;;;;;;4988725;28;19917;-85
2023/08/20 00:17:42;;;;;;;;;;;20.40;87.40;;;;;;4996809;28;19964;-85
2023/08/20 00:20:18;;;;;;;;;;;20.30;88.00;;;;;;4995655;28;20422;-85
2023/08/20 00:22:45;;;;;;;;;;;20.30;88.30;;;;;;4998220;28;20033;-85
2023/08/20 00:25:11;;;;;;;;;;;20.30;88.50;;;;;;5002559;28;19933;-85
2023/08/20 00:27:36;;;;;;;;;;;20.30;88.70;;;;;;4999875;28;20005;-84
2023/08/20 00:30:02;;;;;;;;;;;20.30;88.60;;;;;;4990542;28;19918;-84
2023/08/20 00:32:28;;;;;;;;;;;20.30;88.70;;;;;;4993199;28;19945;-85
2023/08/20 00:34:53;;;;;;;;;;;20.30;88.40;;;;;;4991085;28;19918;-84
2023/08/20 00:37:19;;;;;;;;;;;20.30;88.60;;;;;;5016970;28;19913;-85
2023/08/20 00:39:44;;;;;;;;;;;20.40;87.90;;;;;;5011068;28;19914;-85
2023/08/20 00:42:10;;;;;;;;;;;20.30;87.80;;;;;;4995023;28;20410;-84
2023/08/20 00:44:35;;;;;;;;;;;20.10;87.80;;;;;;4991188;28;19922;-85
2023/08/20 00:47:02;;;;;;;;;;;20.10;87.90;;;;;;5000441;28;19921;-84
2023/08/20 00:49:28;;;;;;;;;;;20.00;87.70;;;;;;5003086;28;19937;-85
2023/08/20 00:51:53;;;;;;;;;;;20.00;87.80;;;;;;5012376;28;19933;-85
2023/08/20 00:54:19;;;;;;;;;;;20.00;88.00;;;;;;5007926;28;19938;-85
2023/08/20 00:56:45;;;;;;;;;;;20.00;88.20;;;;;;5009827;28;20414;-85
2023/08/20 00:59:11;;;;;;;;;;;19.90;88.60;;;;;;4994015;28;19972;-85
2023/08/20 01:01:36;;;;;;;;;;;19.80;88.70;;;;;;4990073;28;19963;-85
2023/08/20 01:04:02;;;;;;;;;;;19.80;88.90;;;;;;4991663;28;19922;-85
2023/08/20 01:06:39;;;;;;;;;;;19.80;89.10;;;;;;4998637;28;20543;-86
2023/08/20 01:09:25;;;;;;;;;;;19.90;88.80;;;;;;4996201;28;19938;-85
2023/08/20 01:11:54;;;;;;;;;;;19.80;88.70;;;;;;4992080;28;19928;-86
2023/08/20 01:14:23;;;;;;;;;;;19.80;89.00;;;;;;4992295;28;20364;-85
2023/08/20 01:16:49;;;;;;;;;;;19.70;89.20;;;;;;4993047;28;19949;-85
2023/08/20 01:19:18;;;;;;;;;;;19.80;89.30;;;;;;4993402;28;20354;-85
2023/08/20 01:21:55;;;;;;;;;;;19.80;89.30;;;;;;4990432;28;19918;-86
2023/08/20 01:24:33;;;;;;;;;;;19.70;89.40;;;;;;4975373;28;19914;-86
2023/08/20 01:27:18;;;;;;;;;;;19.70;89.40;;;;;;4992524;28;19923;-84
2023/08/20 01:29:43;;;;;;;;;;;19.70;89.70;;;;;;4976217;28;19918;-86
2023/08/20 01:32:09;;;;;;;;;;;19.70;89.70;;;;;;4988329;28;19968;-85
2023/08/20 01:34:34;;;;;;;;;;;19.70;89.60;;;;;;4991243;28;19994;-86
2023/08/20 01:37:00;;;;;;;;;;;19.70;89.40;;;;;;4985461;28;19968;-86
2023/08/20 01:39:25;;;;;;;;;;;19.70;89.50;;;;;;4990182;28;20439;-85
2023/08/20 01:41:51;;;;;;;;;;;19.60;89.60;;;;;;4990701;28;20375;-84
2023/08/20 01:44:16;;;;;;;;;;;19.70;89.50;;;;;;4985115;28;20376;-85
2023/08/20 01:46:42;;;;;;;;;;;19.70;89.60;;;;;;4992425;28;19916;-85
2023/08/20 01:49:07;;;;;;;;;;;19.70;89.70;;;;;;4996303;28;19914;-85
2023/08/20 01:51:33;;;;;;;;;;;19.60;89.80;;;;;;4985950;28;20706;-86
2023/08/20 01:53:58;;;;;;;;;;;19.60;89.90;;;;;;4987815;28;19926;-85
2023/08/20 01:56:23;;;;;;;;;;;19.70;89.70;;;;;;4995608;28;20000;-85
2023/08/20 01:58:49;;;;;;;;;;;19.60;89.80;;;;;;4992035;28;19922;-85
2023/08/20 02:01:14;;;;;;;;;;;19.70;89.70;;;;;;4998123;28;20328;-85
2023/08/20 02:03:40;;;;;;;;;;;19.60;89.80;;;;;;4996986;28;19957;-85
2023/08/20 02:06:05;;;;;;;;;;;19.60;90.10;;;;;;4997721;28;20308;-85
2023/08/20 02:08:31;;;;;;;;;;;19.60;89.90;;;;;;4995584;28;19914;-86
2023/08/20 02:11:00;;;;;;;;;;;19.70;89.90;;;;;;4994725;28;19909;-85
2023/08/20 02:13:25;;;;;;;;;;;19.60;89.80;;;;;;5005773;23;19926;-88
2023/08/20 02:16:04;;;;;;;;;;;19.60;89.80;;;;;;4994061;28;19924;-87
2023/08/20 02:18:30;;;;;;;;;;;19.60;89.80;;;;;;4993608;28;19918;-87
2023/08/20 02:20:55;;;;;;;;;;;19.60;89.70;;;;;;4969790;28;19910;-87
2023/08/20 02:23:21;;;;;;;;;;;19.70;89.60;;;;;;4969526;28;19925;-87
2023/08/20 02:25:46;;;;;;;;;;;19.60;89.50;;;;;;4969176;28;19918;-87
2023/08/20 02:28:12;;;;;;;;;;;19.60;89.60;;;;;;4975060;28;19910;-87
2023/08/20 02:30:41;;;;;;;;;;;19.60;89.70;;;;;;4990389;28;19914;-87
2023/08/20 02:33:07;;;;;;;;;;;19.60;89.60;;;;;;4967846;28;19921;-87
2023/08/20 02:35:32;;;;;;;;;;;19.50;89.40;;;;;;4971350;28;19914;-87
2023/08/20 02:37:58;;;;;;;;;;;19.50;89.40;;;;;;4975247;28;19914;-87
2023/08/20 02:40:24;;;;;;;;;;;19.50;89.40;;;;;;4974460;28;19941;-87
2023/08/20 02:42:49;;;;;;;;;;;19.50;89.70;;;;;;4974077;28;20289;-87
2023/08/20 02:45:15;;;;;;;;;;;19.50;89.80;;;;;;4961911;28;20295;-87
2023/08/20 02:47:40;;;;;;;;;;;19.60;89.70;;;;;;4972908;28;19957;-88
2023/08/20 02:50:06;;;;;;;;;;;19.60;90.10;;;;;;4973769;28;19949;-87
2023/08/20 02:52:31;;;;;;;;;;;19.70;89.90;;;;;;4972403;28;19922;-87
2023/08/20 02:54:57;;;;;;;;;;;19.80;89.90;;;;;;4974974;28;20642;-87
2023/08/20 02:57:23;;;;;;;;;;;19.80;89.90;;;;;;4975814;28;20186;-87
2023/08/20 02:59:50;;;;;;;;;;;19.80;90.10;;;;;;4974935;28;19914;-88
2023/08/20 03:02:19;;;;;;;;;;;19.90;89.60;;;;;;4970825;28;19915;-87
2023/08/20 03:04:44;;;;;;;;;;;19.90;89.90;;;;;;4971015;28;19925;-88
2023/08/20 03:07:10;;;;;;;;;;;19.80;90.00;;;;;;4985988;28;19910;-87
2023/08/20 03:09:35;;;;;;;;;;;19.80;90.10;;;;;;4973829;28;19993;-87
2023/08/20 03:12:01;;;;;;;;;;;19.90;90.10;;;;;;4973382;28;19932;-87
2023/08/20 03:14:27;;;;;;;;;;;19.80;90.10;;;;;;4970327;28;19919;-88
2023/08/20 03:17:04;;;;;;;;;;;19.80;90.10;;;;;;4968966;28;19929;-89
2023/08/20 03:20:05;;;;;;;;;;;19.80;89.80;;;;;;4972182;28;19933;-88
2023/08/20 03:29:00;;;;;;;;;;;;;;;;;;;;;
2023/08/20 03:34:21;;;;;;;;;;;19.60;89.90;;;;;;4962375;28;20000;-89
2023/08/20 03:39:43;;;;;;;;;;;19.60;90.10;;;;;;4966412;28;19925;-88
2023/08/20 03:42:15;;;;;;;;;;;19.60;90.20;;;;;;4972130;28;19918;-88
2023/08/20 03:45:00;;;;;;;;;;;19.70;90.30;;;;;;4965191;28;19914;-88
2023/08/20 03:47:29;;;;;;;;;;;19.70;90.60;;;;;;4972826;28;19917;-88
2023/08/20 03:50:06;;;;;;;;;;;19.80;90.50;;;;;;4972616;28;20599;-88
2023/08/20 03:52:46;;;;;;;;;;;;;;;;;;;;;
2023/08/20 03:55:14;;;;;;;;;;;19.80;90.50;;;;;;4972489;28;19925;-89
2023/08/20 03:57:44;;;;;;;;;;;19.80;90.70;;;;;;4972347;28;19914;-90
2023/08/20 04:00:13;;;;;;;;;;;19.90;90.90;;;;;;5092701;23;19926;-89
2023/08/20 04:06:22;;;;;;;;;;;20.00;90.40;;;;;;4980175;28;19972;-89
2023/08/20 04:09:43;;;;;;;;;;;20.10;90.60;;;;;;4986984;28;20366;-89
2023/08/20 04:12:21;;;;;;;;;;;20.00;90.40;;;;;;4973868;28;19921;-88
2023/08/20 04:14:52;;;;;;;;;;;20.10;90.90;;;;;;4966841;28;20297;-88
2023/08/20 04:17:36;;;;;;;;;;;;;;;;;;;;;
2023/08/20 04:20:14;;;;;;;;;;;20.00;91.10;;;;;;4973579;28;20289;-88
2023/08/20 04:25:57;;;;;;;;;;;20.00;91.70;;;;;;4972518;28;19925;-87
2023/08/20 04:28:23;;;;;;;;;;;20.00;91.70;;;;;;4971275;28;20366;-85
2023/08/20 04:30:53;;;;;;;;;;;20.00;91.90;;;;;;4970434;28;20041;-85
2023/08/20 04:33:19;;;;;;;;;;;20.00;92.00;;;;;;4972161;28;19910;-86
2023/08/20 04:35:45;;;;;;;;;;;20.00;91.80;;;;;;4969457;28;19921;-86
2023/08/20 04:38:10;;;;;;;;;;;20.00;91.70;;;;;;4970828;28;19915;-85
2023/08/20 04:40:36;;;;;;;;;;;20.00;91.80;;;;;;4971847;28;19910;-85
2023/08/20 04:43:02;;;;;;;;;;;20.00;91.90;;;;;;4969706;28;19922;-85
2023/08/20 04:45:27;;;;;;;;;;;20.00;91.90;;;;;;4969718;28;19984;-85
2023/08/20 04:47:53;;;;;;;;;;;20.10;91.80;;;;;;4970506;28;19918;-86
2023/08/20 04:50:19;;;;;;;;;;;20.10;91.60;;;;;;4969121;28;19914;-86
2023/08/20 04:52:44;;;;;;;;;;;20.00;91.80;;;;;;4969406;28;19918;-85
2023/08/20 04:55:10;;;;;;;;;;;20.10;91.80;;;;;;4971481;28;20370;-86
2023/08/20 04:57:35;;;;;;;;;;;20.10;91.60;;;;;;4968281;28;19918;-85
2023/08/20 05:00:01;;;;;;;;;;;20.10;91.50;;;;;;4966322;28;19925;-86
2023/08/20 05:02:26;;;;;;;;;;;20.10;91.60;;;;;;4970554;28;20524;-85
2023/08/20 05:04:52;;;;;;;;;;;20.20;91.60;;;;;;4971166;28;19922;-87
2023/08/20 05:07:18;;;;;;;;;;;20.20;91.60;;;;;;4963887;28;19914;-87
2023/08/20 05:09:43;;;;;;;;;;;20.30;91.50;;;;;;4967892;28;20271;-87
2023/08/20 05:12:09;;;;;;;;;;;20.30;91.40;;;;;;4967956;28;19914;-87
2023/08/20 05:14:35;;;;;;;;;;;20.30;91.50;;;;;;4969960;28;20386;-87
2023/08/20 05:17:00;;;;;;;;;;;20.40;91.60;;;;;;4969549;28;20467;-87
2023/08/20 05:19:26;;;;;;;;;;;20.40;91.60;;;;;;4969167;28;19957;-87
2023/08/20 05:21:55;;;;;;;;;;;20.50;91.60;;;;;;4970342;28;19918;-87
2023/08/20 05:24:21;;;;;;;;;;;20.50;91.40;;;;;;4970032;28;19918;-87
2023/08/20 05:27:03;;;;;;;;;;;20.50;91.60;;;;;;4970701;28;19945;-87
2023/08/20 05:29:28;;;;;;;;;;;20.60;91.50;;;;;;4968604;28;20012;-87
2023/08/20 05:31:54;;;;;;;;;;;20.60;91.40;;;;;;4970396;28;19957;-87
2023/08/20 05:34:19;;;;;;;;;;;20.80;91.30;;;;;;4970203;28;20344;-85
2023/08/20 05:36:45;;;;;;;;;;;20.90;91.00;;;;;;4968113;28;19914;-85
2023/08/20 05:39:11;;;;;;;;;;;20.80;90.90;;;;;;4970061;28;19914;-85
2023/08/20 05:41:37;;;;;;;;;;;20.80;91.10;;;;;;4970640;28;20324;-85
2023/08/20 05:44:02;;;;;;;;;;;20.70;91.30;;;;;;4968256;28;20012;-85
2023/08/20 05:46:28;;;;;;;;;;;20.60;91.40;;;;;;4970239;28;19970;-86
2023/08/20 05:48:54;;;;;;;;;;;20.60;91.50;;;;;;4971027;28;19969;-86
2023/08/20 05:51:19;;;;;;;;;;;20.70;91.60;;;;;;4968684;28;19915;-85
2023/08/20 05:53:45;;;;;;;;;;;20.80;91.60;;;;;;4972752;28;19941;-85
2023/08/20 05:56:10;;;;;;;;;;;20.90;91.20;;;;;;4972144;28;20008;-85
2023/08/20 05:58:36;;;;;;;;;;;20.80;91.20;;;;;;4970423;28;20435;-86
2023/08/20 06:01:02;;;;;;;;;;;20.80;91.50;;;;;;4969930;28;19929;-86
2023/08/20 06:03:27;;;;;;;;;;;20.80;91.60;;;;;;4977119;28;20013;-86
2023/08/20 06:05:53;;;;;;;;;;;21.00;91.60;;;;;;4969098;28;19922;-86
2023/08/20 06:08:18;;;;;;;;;;;21.00;91.10;;;;;;4967636;28;20297;-85
2023/08/20 06:10:44;;;;;;;;;;;21.00;91.30;;;;;;4970894;28;19969;-85
2023/08/20 06:13:09;;;;;;;;;;;20.90;91.30;;;;;;4963644;28;19918;-85
2023/08/20 06:15:35;;;;;;;;;;;20.90;91.40;;;;;;4969683;28;19917;-87
2023/08/20 06:18:01;;;;;;;;;;;20.90;91.30;;;;;;4968124;28;20329;-87
2023/08/20 06:20:26;;;;;;;;;;;20.90;91.20;;;;;;4960513;28;20289;-81
2023/08/20 06:22:52;;;;;;;;;;;21.00;91.30;;;;;;4968320;28;20320;-83
2023/08/20 06:25:17;;;;;;;;;;;21.00;91.20;;;;;;4973809;28;19948;-82
2023/08/20 06:27:42;;;;;;;;;;;21.10;91.00;;;;;;4970028;28;19914;-81
2023/08/20 06:30:09;;;;;;;;;;;21.10;90.90;;;;;;4972040;28;19914;-82
2023/08/20 06:32:35;;;;;;;;;;;21.10;90.60;;;;;;4968808;28;20008;-87
2023/08/20 06:35:00;;;;;;;;;;;21.20;90.70;;;;;;4975323;28;19914;-81
2023/08/20 06:37:26;;;;;;;;;;;21.20;90.70;;;;;;4972690;28;19921;-81
2023/08/20 06:39:52;;;;;;;;;;;21.30;90.40;;;;;;4975776;28;19918;-83
2023/08/20 06:42:17;;;;;;;;;;;21.30;90.40;;;;;;4975669;28;19979;-81
2023/08/20 06:44:43;;;;;;;;;;;21.30;90.10;;;;;;4977410;28;19914;-79
2023/08/20 06:47:08;;;;;;;;;;;21.30;90.20;;;;;;4975088;28;20358;-82
2023/08/20 06:49:34;;;;;;;;;;;21.40;90.20;;;;;;4971941;28;19925;-81
2023/08/20 06:51:59;;;;;;;;;;;21.40;90.20;;;;;;4973287;28;19925;-84
2023/08/20 06:54:25;;;;;;;;;;;21.50;90.10;;;;;;4971863;28;19945;-81
2023/08/20 06:56:50;;;;;;;;;;;21.50;90.00;;;;;;4974221;28;19918;-83
2023/08/20 06:59:16;;;;;;;;;;;21.50;90.20;;;;;;4975769;28;19969;-84
2023/08/20 07:01:42;;;;;;;;;;;21.60;90.00;;;;;;4975031;28;20465;-83
2023/08/20 07:04:07;;;;;;;;;;;21.60;89.80;;;;;;4973995;28;19922;-82
2023/08/20 07:06:32;;;;;;;;;;;21.60;89.70;;;;;;4977075;28;19964;-84
2023/08/20 07:08:58;;;;;;;;;;;21.60;89.80;;;;;;4976898;28;20338;-84
2023/08/20 07:11:23;;;;;;;;;;;21.60;89.60;;;;;;4973179;28;19914;-83
2023/08/20 07:13:49;;;;;;;;;;;21.60;89.30;;;;;;4970618;28;19914;-83
2023/08/20 07:16:14;;;;;;;;;;;21.60;89.40;;;;;;4969544;28;19933;-81
2023/08/20 07:18:40;;;;;;;;;;;21.60;89.90;;;;;;4964160;28;19910;-83
2023/08/20 07:21:07;;;;;;;;;;;21.50;90.10;;;;;;4964527;28;19922;-84
2023/08/20 07:23:33;;;;;;;;;;;21.50;90.30;;;;;;4970409;28;19925;-83
2023/08/20 07:26:09;;;;;;;;;;;21.50;90.20;;;;;;4975421;28;19910;-84
2023/08/20 07:31:18;;;;;;;;;;;21.60;90.40;;;;;;4976182;28;19916;-83
2023/08/20 07:33:47;;;;;;;;;;;21.60;90.40;;;;;;4972179;28;20008;-82
2023/08/20 07:36:13;;;;;;;;;;;21.60;90.70;;;;;;4972320;28;20370;-83
2023/08/20 07:38:41;;;;;;;;;;;21.70;90.10;;;;;;4973327;28;19977;-83
2023/08/20 07:41:07;;;;;;;;;;;21.70;89.90;;;;;;4974466;28;19917;-83
2023/08/20 07:43:32;;;;;;;;;;;21.70;89.90;;;;;;4973862;28;19925;-83
2023/08/20 07:45:58;;;;;;;;;;;21.80;89.80;;;;;;4971837;28;19914;-83
2023/08/20 07:48:23;;;;;;;;;;;21.80;89.80;;;;;;4973285;28;20676;-83
2023/08/20 07:50:48;;;;;;;;;;;22.00;89.40;;;;;;4973230;28;19926;-81
2023/08/20 07:53:14;;;;;;;;;;;22.10;88.70;;;;;;4974842;28;19918;-82
2023/08/20 07:55:39;;;;;;;;;;;22.10;88.80;;;;;;4974920;28;20351;-83
2023/08/20 07:58:05;;;;;;;;;;;22.10;89.10;;;;;;4975807;28;19962;-83
2023/08/20 08:00:31;;;;;;;;;;;22.10;88.60;;;;;;4973413;28;19918;-83
2023/08/20 08:02:56;;;;;;;;;;;22.10;88.70;;;;;;4962870;28;19922;-82
2023/08/20 08:05:22;;;;;;;;;;;22.20;88.90;;;;;;4972832;28;19918;-83
2023/08/20 08:07:47;;;;;;;;;;;22.30;88.40;;;;;;4972258;28;19910;-83
2023/08/20 08:10:13;;;;;;;;;;;22.40;88.00;;;;;;4973080;28;19933;-83
2023/08/20 08:12:38;;;;;;;;;;;22.40;87.70;;;;;;4973555;28;19910;-83
2023/08/20 08:15:04;;;;;;;;;;;22.40;87.60;;;;;;4975503;28;20543;-83
2023/08/20 08:17:29;;;;;;;;;;;22.50;87.20;;;;;;4974488;28;19910;-83
2023/08/20 08:19:55;;;;;;;;;;;22.50;86.80;;;;;;4971579;28;20381;-82
2023/08/20 08:22:20;;;;;;;;;;;22.60;86.20;;;;;;4971694;28;19977;-84
2023/08/20 08:24:46;;;;;;;;;;;22.70;86.50;;;;;;4972884;28;19925;-83
2023/08/20 08:27:11;;;;;;;;;;;22.80;86.10;;;;;;4968552;28;19915;-83
2023/08/20 08:29:37;;;;;;;;;;;22.80;86.50;;;;;;4968879;28;20021;-82
2023/08/20 08:32:02;;;;;;;;;;;22.90;86.20;;;;;;4969548;28;20293;-83
2023/08/20 08:34:28;;;;;;;;;;;22.90;84.90;;;;;;4968233;28;19914;-83
2023/08/20 08:36:53;;;;;;;;;;;23.00;84.40;;;;;;4970047;28;19917;-83
2023/08/20 08:39:19;;;;;;;;;;;23.00;83.60;;;;;;4970901;28;19922;-83
2023/08/20 08:41:46;;;;;;;;;;;23.10;84.90;;;;;;4971019;28;19921;-83
2023/08/20 08:44:11;;;;;;;;;;;23.10;84.20;;;;;;4973410;28;19925;-82
2023/08/20 08:46:38;;;;;;;;;;;23.10;83.30;;;;;;4973188;28;20001;-81
2023/08/20 08:49:04;;;;;;;;;;;23.20;82.40;;;;;;4972643;28;19910;-83
2023/08/20 08:51:30;;;;;;;;;;;23.20;82.60;;;;;;4972252;28;20386;-82
2023/08/20 08:53:56;;;;;;;;;;;23.30;81.90;;;;;;4972254;28;19914;-81
2023/08/20 08:56:21;;;;;;;;;;;23.40;81.00;;;;;;4972850;28;19933;-82
2023/08/20 08:58:47;;;;;;;;;;;23.60;80.50;;;;;;4973492;28;19944;-83
2023/08/20 09:01:13;;;;;;;;;;;23.70;80.40;;;;;;4973922;28;19918;-83
2023/08/20 09:03:38;;;;;;;;;;;23.70;81.00;;;;;;4972018;28;19968;-83
2023/08/20 09:06:07;;;;;;;;;;;23.80;80.10;;;;;;4972237;28;19997;-82
2023/08/20 09:08:33;;;;;;;;;;;23.90;78.90;;;;;;4972131;28;20004;-83
2023/08/20 09:10:59;;;;;;;;;;;24.00;76.60;;;;;;4968250;28;20390;-83
2023/08/20 09:13:25;;;;;;;;;;;24.30;74.70;;;;;;4971211;28;19991;-83
2023/08/20 09:15:54;;;;;;;;;;;24.30;75.70;;;;;;4971514;28;20290;-83
2023/08/20 09:18:20;;;;;;;;;;;24.20;73.70;;;;;;4972144;28;20402;-83
2023/08/20 09:20:47;;;;;;;;;;;24.30;74.30;;;;;;4971069;28;19925;-84
2023/08/20 09:23:15;;;;;;;;;;;24.30;75.20;;;;;;4973321;28;19918;-84
2023/08/20 09:25:42;;;;;;;;;;;24.40;75.70;;;;;;4972482;28;19964;-83
2023/08/20 09:28:07;;;;;;;;;;;24.50;74.20;;;;;;4973643;28;19920;-83
2023/08/20 09:30:33;;;;;;;;;;;24.40;73.70;;;;;;4971502;28;20360;-82
2023/08/20 09:33:04;;;;;;;;;;;24.50;70.90;;;;;;4973678;28;19937;-83
2023/08/20 09:35:30;;;;;;;;;;;24.60;69.20;;;;;;4973922;28;19910;-83
2023/08/20 09:38:00;;;;;;;;;;;24.60;69.70;;;;;;4975387;28;19918;-83
2023/08/20 09:40:25;;;;;;;;;;;24.90;67.70;;;;;;4974783;28;19914;-83
2023/08/20 09:42:52;;;;;;;;;;;24.70;69.10;;;;;;4975223;28;19921;-83
2023/08/20 09:45:19;;;;;;;;;;;24.90;69.20;;;;;;4976409;28;20289;-82
2023/08/20 09:47:47;;;;;;;;;;;24.80;68.00;;;;;;4968894;28;20008;-83
2023/08/20 09:50:13;;;;;;;;;;;24.70;69.10;;;;;;4973743;28;19910;-82
2023/08/20 09:52:43;;;;;;;;;;;24.60;71.50;;;;;;4971175;28;19921;-82
2023/08/20 09:55:09;;;;;;;;;;;24.60;71.00;;;;;;4973438;28;19922;-83
2023/08/20 09:57:39;;;;;;;;;;;24.80;71.20;;;;;;4970830;28;20374;-82
2023/08/20 10:00:05;;;;;;;;;;;25.00;70.10;;;;;;4973721;28;19922;-84
2023/08/20 10:02:31;;;;;;;;;;;25.10;71.80;;;;;;4970648;28;19958;-82
2023/08/20 10:04:57;;;;;;;;;;;25.20;71.20;;;;;;4974046;28;19976;-83
2023/08/20 10:07:24;;;;;;;;;;;25.30;69.40;;;;;;4970537;28;19926;-83
2023/08/20 10:09:51;;;;;;;;;;;25.40;68.90;;;;;;4975136;28;20294;-83
2023/08/20 10:12:17;;;;;;;;;;;25.60;68.90;;;;;;4977354;28;19914;-82
2023/08/20 10:14:53;;;;;;;;;;;25.70;68.80;;;;;;4975942;28;20402;-83
2023/08/20 10:17:19;;;;;;;;;;;25.60;69.80;;;;;;4977931;28;19918;-81
2023/08/20 10:19:46;;;;;;;;;;;25.60;70.10;;;;;;4976766;28;19910;-82
2023/08/20 10:22:11;;;;;;;;;;;25.60;69.50;;;;;;4977096;28;20539;-82
2023/08/20 10:24:47;;;;;;;;;;;25.80;69.50;;;;;;4977246;28;19924;-82
2023/08/20 10:27:13;;;;;;;;;;;25.80;68.00;;;;;;4974264;28;19916;-82
2023/08/20 10:29:39;;;;;;;;;;;26.00;67.90;;;;;;4977042;28;19965;-83
2023/08/20 10:32:06;;;;;;;;;;;26.00;67.80;;;;;;4977398;28;20342;-83
2023/08/20 10:34:34;;;;;;;;;;;26.00;66.80;;;;;;4976531;28;19928;-81
2023/08/20 10:37:02;;;;;;;;;;;25.90;66.90;;;;;;4977661;28;19989;-82
2023/08/20 10:39:28;;;;;;;;;;;25.80;68.30;;;;;;4974921;28;19921;-82
2023/08/20 10:42:10;;;;;;;;;;;26.00;65.90;;;;;;4975755;28;19934;-83
2023/08/20 10:44:54;;;;;;;;;;;25.80;67.20;;;;;;4974579;28;19942;-82
2023/08/20 10:47:21;;;;;;;;;;;25.70;67.90;;;;;;4974724;28;19925;-81
2023/08/20 10:49:51;;;;;;;;;;;25.60;68.30;;;;;;4976457;28;20002;-83
2023/08/20 10:52:17;;;;;;;;;;;25.70;68.60;;;;;;4975360;28;19974;-82
2023/08/20 10:54:43;;;;;;;;;;;25.80;67.80;;;;;;4976144;28;19914;-83
2023/08/20 10:57:08;;;;;;;;;;;25.80;68.10;;;;;;4975888;28;19910;-82
2023/08/20 10:59:38;;;;;;;;;;;25.70;69.00;;;;;;4975102;28;19933;-82
2023/08/20 11:02:06;;;;;;;;;;;25.70;68.70;;;;;;4976214;28;19918;-81
2023/08/20 11:04:35;;;;;;;;;;;25.60;69.00;;;;;;4973628;28;19926;-84
2023/08/20 11:07:00;;;;;;;;;;;25.70;68.40;;;;;;4975580;28;19910;-82
2023/08/20 11:09:26;;;;;;;;;;;25.60;68.80;;;;;;4973577;28;19914;-83
2023/08/20 11:11:52;;;;;;;;;;;25.40;69.20;;;;;;4978296;28;19910;-82
2023/08/20 11:14:19;;;;;;;;;;;25.50;69.50;;;;;;4975279;28;19925;-83
2023/08/20 11:16:44;;;;;;;;;;;25.60;68.30;;;;;;4975948;28;20388;-82
2023/08/20 11:19:10;;;;;;;;;;;25.80;67.50;;;;;;4974702;28;19914;-83
2023/08/20 11:21:37;;;;;;;;;;;25.90;67.10;;;;;;4974344;28;20533;-83
2023/08/20 11:24:02;;;;;;;;;;;26.00;67.60;;;;;;4976554;28;20041;-81
2023/08/20 11:26:28;;;;;;;;;;;26.40;65.70;;;;;;4977423;28;19950;-83
2023/08/20 11:28:53;;;;;;;;;;;26.50;65.80;;;;;;4975849;28;19914;-82
2023/08/20 11:31:19;;;;;;;;;;;26.50;65.80;;;;;;4978810;28;19910;-82
2023/08/20 11:33:45;;;;;;;;;;;26.40;66.90;;;;;;4975732;28;20001;-82
2023/08/20 11:36:10;;;;;;;;;;;26.30;66.90;;;;;;4974260;28;19913;-83
2023/08/20 11:38:36;;;;;;;;;;;26.30;66.60;;;;;;4973295;28;19957;-83
2023/08/20 11:41:02;;;;;;;;;;;26.20;66.60;;;;;;4973020;28;19921;-83
2023/08/20 11:43:28;;;;;;;;;;;26.10;67.10;;;;;;4975958;28;19922;-82
2023/08/20 11:45:54;;;;;;;;;;;26.00;68.20;;;;;;4975425;28;19910;-82
2023/08/20 11:48:21;;;;;;;;;;;25.80;69.70;;;;;;4975868;28;19910;-81
2023/08/20 11:50:46;;;;;;;;;;;25.80;69.20;;;;;;4973024;28;20289;-81
2023/08/20 11:53:12;;;;;;;;;;;26.00;69.40;;;;;;4974153;28;19910;-82
2023/08/20 11:55:39;;;;;;;;;;;26.10;68.20;;;;;;4976074;28;20303;-83
2023/08/20 11:58:04;;;;;;;;;;;26.30;68.70;;;;;;4977807;28;19918;-83
2023/08/20 12:00:30;;;;;;;;;;;26.50;67.70;;;;;;4976280;28;19928;-82
2023/08/20 12:02:57;;;;;;;;;;;26.50;66.60;;;;;;4977111;28;19910;-83
2023/08/20 12:05:26;;;;;;;;;;;26.50;66.10;;;;;;4977098;28;19918;-83
2023/08/20 12:07:58;;;;;;;;;;;26.50;66.80;;;;;;4977673;28;19917;-83
2023/08/20 12:10:25;;;;;;;;;;;26.40;67.00;;;;;;4975251;28;19921;-82
2023/08/20 12:12:50;;;;;;;;;;;26.50;67.20;;;;;;4978955;28;20255;-83
2023/08/20 12:15:17;;;;;;;;;;;26.50;67.80;;;;;;4977664;28;19914;-82
2023/08/20 12:17:42;;;;;;;;;;;26.50;67.40;;;;;;4976274;28;19910;-84
2023/08/20 12:20:12;;;;;;;;;;;26.50;67.70;;;;;;4975390;28;20057;-82
2023/08/20 12:22:38;;;;;;;;;;;26.40;67.50;;;;;;4976032;28;20377;-81
2023/08/20 12:25:04;;;;;;;;;;;26.40;67.10;;;;;;4977152;28;19918;-83
2023/08/20 12:27:29;;;;;;;;;;;26.30;67.30;;;;;;4975461;28;20390;-81
2023/08/20 12:29:55;;;;;;;;;;;26.30;67.20;;;;;;4981859;28;19942;-83
2023/08/20 12:32:20;;;;;;;;;;;26.20;68.40;;;;;;4973724;28;20331;-83
2023/08/20 12:34:46;;;;;;;;;;;26.10;68.40;;;;;;4975344;28;19914;-82
2023/08/20 12:37:11;;;;;;;;;;;26.10;67.30;;;;;;4973932;28;19910;-83
2023/08/20 12:39:37;;;;;;;;;;;26.30;66.60;;;;;;4969647;28;19918;-83
2023/08/20 12:42:02;;;;;;;;;;;26.10;68.10;;;;;;4973668;28;19910;-83
2023/08/20 12:44:28;;;;;;;;;;;26.10;67.50;;;;;;4976182;28;19918;-83
2023/08/20 12:46:54;;;;;;;;;;;26.40;65.70;;;;;;4979554;28;20101;-83
2023/08/20 12:49:19;;;;;;;;;;;26.30;66.20;;;;;;4973865;28;19917;-84
2023/08/20 12:51:44;;;;;;;;;;;26.20;67.40;;;;;;4973558;28;19910;-83
2023/08/20 12:54:11;;;;;;;;;;;26.10;68.30;;;;;;4973263;28;19910;-82
2023/08/20 12:56:36;;;;;;;;;;;26.10;67.80;;;;;;4971199;28;19918;-83
2023/08/20 12:59:02;;;;;;;;;;;26.10;66.40;;;;;;4973505;28;19937;-82
2023/08/20 13:01:36;;;;;;;;;;;26.10;67.30;;;;;;4972742;28;19918;-83
2023/08/20 13:04:03;;;;;;;;;;;26.10;66.20;;;;;;4970560;28;20400;-83
2023/08/20 13:06:32;;;;;;;;;;;26.20;66.30;;;;;;4971322;28;19918;-83
2023/08/20 13:09:00;;;;;;;;;;;26.40;65.70;;;;;;4973229;28;19921;-83
2023/08/20 13:11:27;;;;;;;;;;;26.50;63.80;;;;;;4973071;28;19914;-83
2023/08/20 13:14:28;;;;;;;;;;;26.50;64.10;;;;;;4971791;28;19918;-84
2023/08/20 13:16:55;;;;;;;;;;;26.50;64.40;;;;;;4965426;28;19910;-83
2023/08/20 13:19:27;;;;;;;;;;;26.50;63.60;;;;;;4971012;28;19914;-82
2023/08/20 13:21:53;;;;;;;;;;;26.50;64.00;;;;;;4964618;28;19914;-82
2023/08/20 13:24:21;;;;;;;;;;;26.50;64.90;;;;;;4971727;28;19924;-83
2023/08/20 13:26:47;;;;;;;;;;;26.70;63.00;;;;;;4972261;28;19917;-82
2023/08/20 13:29:12;;;;;;;;;;;26.60;63.00;;;;;;4971181;28;19914;-83
2023/08/20 13:31:38;;;;;;;;;;;26.60;61.80;;;;;;4972149;28;19914;-83
2023/08/20 13:34:03;;;;;;;;;;;26.40;62.60;;;;;;4970923;28;20289;-83
2023/08/20 13:36:29;;;;;;;;;;;26.40;63.80;;;;;;4972870;28;20503;-83
2023/08/20 13:38:55;;;;;;;;;;;26.50;63.20;;;;;;4973048;28;19929;-82
2023/08/20 13:41:20;;;;;;;;;;;26.40;63.10;;;;;;4974015;28;19910;-83
2023/08/20 13:43:46;;;;;;;;;;;26.30;64.80;;;;;;4973804;28;19925;-82
2023/08/20 13:46:11;;;;;;;;;;;26.30;65.40;;;;;;4979970;28;19981;-82
2023/08/20 13:48:37;;;;;;;;;;;26.30;64.30;;;;;;4981114;28;19914;-83
2023/08/20 13:51:02;;;;;;;;;;;26.50;63.00;;;;;;4980262;28;20576;-82
2023/08/20 13:53:28;;;;;;;;;;;26.50;63.70;;;;;;4978205;28;19915;-82
2023/08/20 13:55:55;;;;;;;;;;;26.50;63.10;;;;;;4975941;28;19918;-82
2023/08/20 13:58:20;;;;;;;;;;;26.50;63.00;;;;;;4979031;28;19918;-83
2023/08/20 14:00:46;;;;;;;;;;;26.50;62.00;;;;;;4978165;28;19914;-83
2023/08/20 14:03:12;;;;;;;;;;;26.60;63.40;;;;;;4979901;28;19917;-82
2023/08/20 14:05:37;;;;;;;;;;;26.70;61.70;;;;;;4979782;28;19980;-83
2023/08/20 14:08:03;;;;;;;;;;;26.80;62.30;;;;;;4993796;28;19910;-82
2023/08/20 14:10:28;;;;;;;;;;;26.80;61.80;;;;;;4984492;28;19921;-82
2023/08/20 14:12:53;;;;;;;;;;;26.90;62.60;;;;;;4994221;23;20421;-83
2023/08/20 14:15:21;;;;;;;;;;;27.10;60.30;;;;;;4986662;28;20699;-83
2023/08/20 14:17:47;;;;;;;;;;;27.20;60.50;;;;;;4997130;28;19914;-84
2023/08/20 14:20:13;;;;;;;;;;;27.30;59.80;;;;;;4999238;28;19949;-83
2023/08/20 14:22:39;;;;;;;;;;;27.30;60.20;;;;;;4999110;28;19914;-83
2023/08/20 14:25:05;;;;;;;;;;;27.20;61.00;;;;;;4995404;28;20408;-84
2023/08/20 14:27:30;;;;;;;;;;;27.30;60.70;;;;;;4996821;28;20037;-84
2023/08/20 14:29:56;;;;;;;;;;;27.40;60.80;;;;;;4995338;28;20478;-82
2023/08/20 14:32:21;;;;;;;;;;;27.60;61.00;;;;;;4993870;28;20297;-83
2023/08/20 14:34:46;;;;;;;;;;;27.60;59.40;;;;;;4998334;28;19914;-83
2023/08/20 14:37:13;;;;;;;;;;;27.60;60.50;;;;;;4999130;28;19914;-84
2023/08/20 14:39:38;;;;;;;;;;;27.40;60.40;;;;;;4996145;28;19914;-83
2023/08/20 14:42:04;;;;;;;;;;;27.40;61.00;;;;;;4996921;28;19913;-84